Time;durP1;ratioP1;P1;durP2;ratioP2;P2;SDS_P1;SDS_P2;PMS_P1;PMS_P2;Temp;Humidity;BMP_temperature;BMP_pressure;BME280_temperature;BME280_humidity;BME280_pressure;Samples;Min_cycle;Max_cycle;Signal;HPM_P1;HPM_P2
2022/12/19 00:02:59;;;;;;;38.80;17.83;;;;;;;-144.32;100.00;68061.97;10348976;28;20149;-80
2022/12/19 00:07:59;;;;;;;39.47;19.10;;;;;;;-144.32;100.00;68061.97;10354386;28;20643;-79
2022/12/19 00:13:00;;;;;;;38.97;18.65;;;;;;;-144.32;100.00;68061.97;10363755;28;20070;-80
2022/12/19 00:18:01;;;;;;;39.00;18.80;;;;;;;-144.32;100.00;68061.97;10342053;28;20060;-80
2022/12/19 00:23:01;;;;;;;40.03;18.40;;;;;;;-144.32;100.00;68061.97;10360075;28;20106;-80
2022/12/19 00:28:03;;;;;;;39.53;18.88;;;;;;;-144.32;100.00;68061.97;10367429;28;20070;-79
2022/12/19 00:33:04;;;;;;;40.00;18.63;;;;;;;-144.32;100.00;68061.97;10357286;28;20263;-80
2022/12/19 00:38:04;;;;;;;37.88;18.25;;;;;;;-144.32;100.00;68061.97;10390594;28;20046;-78
2022/12/19 00:43:05;;;;;;;38.83;18.48;;;;;;;-144.32;100.00;68061.97;10395287;28;20026;-78
2022/12/19 00:48:05;;;;;;;37.10;17.48;;;;;;;-144.32;100.00;68061.97;10402389;28;20134;-77
2022/12/19 00:53:06;;;;;;;40.28;18.88;;;;;;;-144.32;100.00;68061.97;10379254;28;20022;-79
2022/12/19 00:58:07;;;;;;;36.75;16.83;;;;;;;-144.32;100.00;68061.97;10367681;28;20038;-79
2022/12/19 01:03:08;;;;;;;44.50;19.40;;;;;;;-144.32;100.00;68061.97;10353889;28;20050;-79
2022/12/19 01:08:09;;;;;;;41.70;18.90;;;;;;;-144.32;100.00;68061.97;10359847;28;20072;-80
2022/12/19 01:13:09;;;;;;;37.58;17.83;;;;;;;-144.32;100.00;68061.97;10359903;28;20041;-79
2022/12/19 01:18:11;;;;;;;36.58;17.73;;;;;;;-144.32;100.00;68061.97;10354732;28;20026;-79
2022/12/19 01:23:12;;;;;;;35.20;16.77;;;;;;;-144.32;100.00;68061.97;10364423;28;20041;-80
2022/12/19 01:28:14;;;;;;;36.20;18.63;;;;;;;-144.32;100.00;68061.97;10391987;28;20048;-79
2022/12/19 01:33:16;;;;;;;36.85;17.73;;;;;;;-144.32;100.00;68061.97;10384174;28;20457;-80
2022/12/19 01:38:19;;;;;;;37.15;17.60;;;;;;;-144.32;100.00;68061.97;10389595;28;20046;-80
2022/12/19 01:43:21;;;;;;;37.35;18.00;;;;;;;-144.32;100.00;68061.97;10360421;28;20180;-80
2022/12/19 01:48:44;;;;;;;33.22;17.58;;;;;;;-144.32;100.00;68061.97;10356905;28;20038;-80
2022/12/19 01:54:06;;;;;;;36.97;19.05;;;;;;;-144.32;100.00;68061.97;10327998;28;20084;-79
2022/12/19 01:59:15;;;;;;;37.80;17.98;;;;;;;-144.32;100.00;68061.97;10363168;28;20030;-80
2022/12/19 02:04:15;;;;;;;34.58;17.10;;;;;;;-144.32;100.00;68061.97;10358905;28;20042;-79
2022/12/19 02:09:18;;;;;;;36.20;17.08;;;;;;;-144.32;100.00;68061.97;10359898;28;20033;-80
2022/12/19 02:14:19;;;;;;;44.50;19.58;;;;;;;-144.32;100.00;68061.97;10350834;28;20048;-79
2022/12/19 02:19:44;;;;;;;42.15;18.55;;;;;;;-144.32;100.00;68061.97;10351401;28;20525;-79
2022/12/19 02:25:12;;;;;;;37.45;17.45;;;;;;;-144.32;100.00;68061.97;10365752;28;20049;-79
2022/12/19 02:30:16;;;;;;;40.33;18.55;;;;;;;-144.32;100.00;68061.97;10382163;28;20038;-79
2022/12/19 02:35:46;;;;;;;40.00;18.02;;;;;;;-144.32;100.00;68061.97;10366540;28;20156;-81
2022/12/19 02:40:59;;;;;;;41.75;18.52;;;;;;;-144.32;100.00;68061.97;10359417;28;20257;-80
2022/12/19 02:46:02;;;;;;;45.30;19.92;;;;;;;-144.32;100.00;68061.97;10391206;28;20026;-80
2022/12/19 02:51:06;;;;;;;43.20;18.73;;;;;;;-144.32;100.00;68061.97;10358535;28;20065;-81
2022/12/19 02:56:06;;;;;;;38.37;18.40;;;;;;;-144.32;100.00;68061.97;10344374;28;20041;-81
2022/12/19 03:01:27;;;;;;;40.10;19.20;;;;;;;-144.32;100.00;68061.97;10359434;28;20085;-78
2022/12/19 03:06:41;;;;;;;39.67;18.60;;;;;;;-144.32;100.00;68061.97;10350274;28;20038;-79
2022/12/19 03:11:45;;;;;;;39.33;17.00;;;;;;;-144.32;100.00;68061.97;10355386;28;20030;-79
2022/12/19 03:16:48;;;;;;;40.92;19.65;;;;;;;-144.32;100.00;68061.97;10389559;28;20038;-80
2022/12/19 03:21:49;;;;;;;38.92;19.10;;;;;;;-144.32;100.00;68061.97;10391477;28;20068;-80
2022/12/19 03:27:15;;;;;;;40.30;19.88;;;;;;;-144.32;100.00;68061.97;10389156;28;20032;-81
2022/12/19 03:32:17;;;;;;;43.55;19.05;;;;;;;-144.32;100.00;68061.97;10376652;28;20046;-85
2022/12/19 03:37:25;;;;;;;46.53;19.30;;;;;;;-144.32;100.00;68061.97;10380845;28;20054;-86
2022/12/19 03:47:52;;;;;;;42.08;19.58;;;;;;;-144.32;100.00;68061.97;10375441;28;20038;-82
2022/12/19 03:53:17;;;;;;;48.00;19.33;;;;;;;-144.32;100.00;68061.97;10355035;28;20114;-81
2022/12/19 03:58:30;;;;;;;52.27;21.83;;;;;;;-144.32;100.00;68061.97;10347310;28;20096;-81
2022/12/19 04:03:32;;;;;;;46.58;20.92;;;;;;;-144.32;100.00;68061.97;10360257;28;20398;-80
2022/12/19 04:08:35;;;;;;;45.80;20.58;;;;;;;-144.32;100.00;68061.97;10370796;28;20035;-80
2022/12/19 04:13:44;;;;;;;47.20;19.98;;;;;;;-144.32;100.00;68061.97;10346198;28;20034;-80
2022/12/19 04:18:52;;;;;;;45.88;21.13;;;;;;;-144.32;100.00;68061.97;10348327;28;20185;-79
2022/12/19 04:23:59;;;;;;;45.38;20.77;;;;;;;-144.32;100.00;68061.97;10362493;28;20034;-83
2022/12/19 04:29:03;;;;;;;44.75;19.98;;;;;;;-144.32;100.00;68061.97;10368506;28;20034;-82
2022/12/19 04:34:04;;;;;;;49.85;21.80;;;;;;;-144.32;100.00;68061.97;10394096;28;20057;-85
2022/12/19 04:39:06;;;;;;;50.95;20.65;;;;;;;-144.32;100.00;68061.97;10402215;28;20086;-79
2022/12/19 04:44:06;;;;;;;52.90;22.02;;;;;;;-144.32;100.00;68061.97;10397357;28;20049;-81
2022/12/19 04:49:07;;;;;;;46.53;21.27;;;;;;;-144.32;100.00;68061.97;10377510;28;20398;-81
2022/12/19 04:54:08;;;;;;;51.22;22.88;;;;;;;-144.32;100.00;68061.97;10383292;28;20046;-79
2022/12/19 04:59:09;;;;;;;43.58;22.25;;;;;;;-144.32;100.00;68061.97;10390901;28;20058;-80
2022/12/19 05:04:09;;;;;;;45.95;21.60;;;;;;;-144.32;100.00;68061.97;10403975;28;20026;-81
2022/12/19 05:09:11;;;;;;;48.45;21.67;;;;;;;-144.32;100.00;68061.97;10399633;28;20048;-81
2022/12/19 05:14:11;;;;;;;56.47;22.65;;;;;;;-144.32;100.00;68061.97;10409200;28;20034;-78
2022/12/19 05:19:12;;;;;;;51.05;21.05;;;;;;;-144.32;100.00;68061.97;10396678;28;20095;-81
2022/12/19 05:24:15;;;;;;;50.63;22.33;;;;;;;-144.32;100.00;68061.97;10382089;28;20056;-80
2022/12/19 05:29:16;;;;;;;41.35;19.58;;;;;;;-144.32;100.00;68061.97;10354223;28;20111;-79
2022/12/19 05:34:18;;;;;;;49.33;20.38;;;;;;;-144.32;100.00;68061.97;10364633;28;20092;-80
2022/12/19 05:39:18;;;;;;;43.65;20.40;;;;;;;-144.32;100.00;68061.97;10360593;28;20087;-80
2022/12/19 05:44:19;;;;;;;44.28;20.33;;;;;;;-144.32;100.00;68061.97;10358393;28;20720;-80
2022/12/19 05:49:21;;;;;;;49.10;20.63;;;;;;;-144.32;100.00;68061.97;10378396;28;20065;-80
2022/12/19 05:54:21;;;;;;;48.75;19.17;;;;;;;-144.32;100.00;68061.97;10374461;28;20034;-80
2022/12/19 05:59:22;;;;;;;50.55;21.02;;;;;;;-144.32;100.00;68061.97;10380851;28;20406;-80
2022/12/19 06:04:22;;;;;;;48.22;19.90;;;;;;;-144.32;100.00;68061.97;10381999;28;20038;-81
2022/12/19 06:09:23;;;;;;;46.10;19.27;;;;;;;-144.32;100.00;68061.97;10374487;28;20074;-83
2022/12/19 06:14:24;;;;;;;46.20;20.77;;;;;;;-144.32;100.00;68061.97;10369837;28;20516;-81
2022/12/19 06:19:24;;;;;;;47.92;20.35;;;;;;;-144.32;100.00;68061.97;10349358;28;20133;-77
2022/12/19 06:24:26;;;;;;;41.92;19.60;;;;;;;-144.32;100.00;68061.97;10358774;28;20038;-83
2022/12/19 06:29:27;;;;;;;46.83;19.95;;;;;;;-144.32;100.00;68061.97;10382910;28;20085;-81
2022/12/19 06:34:28;;;;;;;44.75;20.13;;;;;;;-144.32;100.00;68061.97;10395255;28;20026;-81
2022/12/19 06:39:28;;;;;;;43.83;20.08;;;;;;;-144.32;100.00;68061.97;10380678;28;20037;-80
2022/12/19 06:44:31;;;;;;;44.67;20.05;;;;;;;-144.32;100.00;68061.97;10352003;28;20037;-79
2022/12/19 06:49:32;;;;;;;47.13;20.13;;;;;;;-144.32;100.00;68061.97;10344798;28;20434;-78
2022/12/19 06:54:34;;;;;;;53.53;22.23;;;;;;;-144.32;100.00;68061.97;10364132;28;20058;-78
2022/12/19 06:59:38;;;;;;;44.10;20.65;;;;;;;-144.32;100.00;68061.97;10351732;28;20062;-81
2022/12/19 07:04:47;;;;;;;49.22;22.25;;;;;;;-144.32;100.00;68061.97;10349113;28;20038;-81
2022/12/19 07:09:49;;;;;;;45.67;20.63;;;;;;;-144.32;100.00;68061.97;10341319;28;20046;-79
2022/12/19 07:14:51;;;;;;;45.00;20.80;;;;;;;-144.32;100.00;68061.97;10357853;28;20041;-81
2022/12/19 07:19:56;;;;;;;51.47;21.63;;;;;;;-144.32;100.00;68061.97;10387675;28;20101;-82
2022/12/19 07:24:58;;;;;;;45.15;19.98;;;;;;;-144.32;100.00;68061.97;10403468;28;20035;-78
2022/12/19 07:30:04;;;;;;;50.40;22.00;;;;;;;-144.32;100.00;68061.97;10401570;28;20057;-78
2022/12/19 07:35:06;;;;;;;49.00;20.65;;;;;;;-144.32;100.00;68061.97;10392603;28;20107;-80
2022/12/19 07:40:12;;;;;;;52.00;23.38;;;;;;;-144.32;100.00;68061.97;10360829;28;20067;-79
2022/12/19 07:45:18;;;;;;;52.40;22.23;;;;;;;-144.32;100.00;68061.97;10366059;28;20077;-81
2022/12/19 07:50:19;;;;;;;45.65;21.15;;;;;;;-144.32;100.00;68061.97;10368059;28;20099;-79
2022/12/19 07:55:20;;;;;;;51.10;20.80;;;;;;;-144.32;100.00;68061.97;10365729;28;20538;-79
2022/12/19 08:00:24;;;;;;;51.08;21.85;;;;;;;-144.32;100.00;68061.97;10359789;28;20049;-79
2022/12/19 08:05:27;;;;;;;55.92;22.67;;;;;;;-144.32;100.00;68061.97;10355583;28;20034;-78
2022/12/19 08:10:28;;;;;;;51.63;21.75;;;;;;;-144.32;100.00;68061.97;10354108;28;20437;-81
2022/12/19 08:15:28;;;;;;;54.53;22.48;;;;;;;-144.32;100.00;68061.97;10347591;28;20054;-79
2022/12/19 08:20:29;;;;;;;49.53;21.10;;;;;;;-144.32;100.00;68061.97;10348671;28;20042;-80
2022/12/19 08:25:30;;;;;;;47.67;21.35;;;;;;;-144.32;100.00;68061.97;10369190;28;20050;-79
2022/12/19 08:30:30;;;;;;;58.65;22.70;;;;;;;-144.32;100.00;68061.97;10385023;28;20129;-76
2022/12/19 08:35:31;;;;;;;55.58;23.23;;;;;;;-144.32;100.00;68061.97;10392891;28;20037;-78
2022/12/19 08:40:33;;;;;;;49.17;22.63;;;;;;;-144.32;100.00;68061.97;10371072;28;20042;-78
2022/12/19 08:45:33;;;;;;;51.58;23.58;;;;;;;-144.32;100.00;68061.97;10357534;28;20038;-75
2022/12/19 08:50:34;;;;;;;45.05;21.25;;;;;;;-144.32;100.00;68061.97;10365111;28;20033;-77
2022/12/19 08:55:36;;;;;;;52.92;23.38;;;;;;;-144.32;100.00;68061.97;10360875;28;20050;-79
2022/12/19 09:00:36;;;;;;;47.88;21.08;;;;;;;-144.32;100.00;68061.97;10344935;28;20043;-77
2022/12/19 09:05:38;;;;;;;59.47;24.58;;;;;;;-144.32;100.00;68061.97;10376035;28;20512;-77
2022/12/19 09:10:38;;;;;;;50.70;22.30;;;;;;;-144.32;100.00;68061.97;10361080;28;20117;-78
2022/12/19 09:15:39;;;;;;;56.15;21.80;;;;;;;-144.32;100.00;68061.97;10344449;28;20054;-78
2022/12/19 09:20:40;;;;;;;51.42;22.13;;;;;;;-144.32;100.00;68061.97;10357872;28;20196;-80
2022/12/19 09:25:40;;;;;;;54.08;23.55;;;;;;;-144.32;100.00;68061.97;10367109;28;20046;-77
2022/12/19 09:30:41;;;;;;;49.67;22.85;;;;;;;-144.32;100.00;68061.97;10375991;28;20042;-78
2022/12/19 09:35:48;;;;;;;49.30;21.13;;;;;;;-144.32;100.00;68061.97;10361600;28;20046;-78
2022/12/19 09:41:14;;;;;;;47.00;21.33;;;;;;;-144.32;100.00;68061.97;10354552;28;20121;-78
2022/12/19 09:46:24;;;;;;;43.17;21.13;;;;;;;-144.32;100.00;68061.97;10358833;28;20599;-78
2022/12/19 09:51:33;;;;;;;50.80;22.20;;;;;;;-144.32;100.00;68061.97;10357286;28;20064;-79
2022/12/19 09:56:39;;;;;;;49.33;21.67;;;;;;;-144.32;100.00;68061.97;10347926;28;20785;-75
2022/12/19 10:02:12;;;;;;;55.20;22.10;;;;;;;-144.32;100.00;68061.97;10351831;28;20054;-82
2022/12/19 10:07:14;;;;;;;46.42;22.75;;;;;;;-144.32;100.00;68061.97;10368212;28;20125;-77
2022/12/19 10:13:04;;;;;;;51.20;22.58;;;;;;;-144.32;100.00;68061.97;10355928;28;20478;-79
2022/12/19 10:18:37;;;;;;;48.05;19.85;;;;;;;-144.32;100.00;68061.97;10356243;28;20081;-80
2022/12/19 10:23:58;;;;;;;49.20;19.98;;;;;;;-144.32;100.00;68061.97;10344834;28;20121;-80
2022/12/19 10:29:08;;;;;;;46.80;20.20;;;;;;;-144.32;100.00;68061.97;10353157;28;20129;-79
2022/12/19 10:34:18;;;;;;;45.95;20.52;;;;;;;-144.32;100.00;68061.97;10361378;28;20378;-80
2022/12/19 10:39:30;;;;;;;41.00;19.38;;;;;;;-144.32;100.00;68061.97;10353411;28;20046;-79
2022/12/19 10:44:37;;;;;;;42.88;20.40;;;;;;;-144.32;100.00;68061.97;10376773;28;20046;-79
2022/12/19 10:49:39;;;;;;;44.45;19.63;;;;;;;-144.32;100.00;68061.97;10357563;28;20046;-81
2022/12/19 10:54:42;;;;;;;45.20;20.77;;;;;;;-144.32;100.00;68061.97;10363623;28;20042;-83
2022/12/19 10:59:58;;;;;;;55.67;21.45;;;;;;;-144.32;100.00;68061.97;10371027;28;20101;-81
2022/12/19 11:04:58;;;;;;;44.45;19.90;;;;;;;-144.32;100.00;68061.97;10405972;28;20038;-79
2022/12/19 11:09:59;;;;;;;46.30;20.85;;;;;;;-144.32;100.00;68061.97;10375339;28;20038;-79
2022/12/19 11:15:15;;;;;;;46.13;21.05;;;;;;;-144.32;100.00;68061.97;10368927;28;20046;-79
2022/12/19 11:20:22;;;;;;;50.30;21.60;;;;;;;-144.32;100.00;68061.97;10365132;28;20045;-79
2022/12/19 11:25:39;;;;;;;45.20;20.98;;;;;;;-144.32;100.00;68061.97;10381304;28;20033;-82
2022/12/19 11:30:40;;;;;;;42.08;20.23;;;;;;;-144.32;100.00;68061.97;10382152;28;20056;-80
2022/12/19 11:35:52;;;;;;;41.17;19.48;;;;;;;-144.32;100.00;68061.97;10360062;28;20065;-79
2022/12/19 11:40:56;;;;;;;43.63;20.70;;;;;;;-144.32;100.00;68061.97;10361039;28;20133;-80
2022/12/19 11:46:09;;;;;;;45.50;20.08;;;;;;;-144.32;100.00;68061.97;10366025;28;20038;-80
2022/12/19 11:51:40;;;;;;;41.05;19.85;;;;;;;-144.32;100.00;68061.97;10360429;28;20061;-81
2022/12/19 11:56:41;;;;;;;38.53;19.35;;;;;;;-144.32;100.00;68061.97;10370286;28;20452;-78
2022/12/19 12:01:57;;;;;;;44.58;19.55;;;;;;;-144.32;100.00;68061.97;10365667;28;20073;-80
2022/12/19 12:06:58;;;;;;;42.50;21.15;;;;;;;-144.32;100.00;68061.97;10363091;28;20038;-79
2022/12/19 12:12:23;;;;;;;42.53;18.67;;;;;;;-144.32;100.00;68061.97;10370453;28;20045;-79
2022/12/19 12:17:30;;;;;;;39.88;19.23;;;;;;;-144.32;100.00;68061.97;10375921;28;20050;-83
2022/12/19 12:22:54;;;;;;;42.60;19.67;;;;;;;-144.32;100.00;68061.97;10393164;28;20037;-83
2022/12/19 12:28:24;;;;;;;39.85;18.00;;;;;;;-144.32;100.00;68061.97;10373228;28;20030;-84
2022/12/19 12:33:38;;;;;;;38.75;19.25;;;;;;;-144.32;100.00;68061.97;10346787;28;20421;-80
2022/12/19 12:39:01;;;;;;;40.38;18.73;;;;;;;-144.32;100.00;68061.97;10366894;28;20042;-81
2022/12/19 12:44:08;;;;;;;40.15;17.65;;;;;;;-144.32;100.00;68061.97;10373464;28;20131;-79
2022/12/19 12:49:33;;;;;;;39.95;18.23;;;;;;;-144.32;100.00;68061.97;10374886;28;20046;-79
2022/12/19 12:54:40;;;;;;;37.53;18.27;;;;;;;-144.32;100.00;68061.97;10366038;28;20042;-82
2022/12/19 12:59:45;;;;;;;34.80;17.38;;;;;;;-144.32;100.00;68061.97;10360443;28;20489;-81
2022/12/19 13:04:57;;;;;;;43.90;20.02;;;;;;;-144.32;100.00;68061.97;10369838;28;20044;-82
2022/12/19 13:10:30;;;;;;;41.30;19.67;;;;;;;-144.32;100.00;68061.97;10366203;28;20091;-83
2022/12/19 13:15:36;;;;;;;43.72;19.60;;;;;;;-144.32;100.00;68061.97;10363694;28;20053;-81
2022/12/19 13:20:39;;;;;;;39.00;18.25;;;;;;;-144.32;100.00;68061.97;10369999;28;20073;-83
2022/12/19 13:25:39;;;;;;;35.28;18.60;;;;;;;-144.32;100.00;68061.97;10362776;28;20441;-81
2022/12/19 13:31:05;;;;;;;38.75;18.40;;;;;;;-144.32;100.00;68061.97;10383974;28;20030;-81
2022/12/19 13:36:44;;;;;;;35.50;19.38;;;;;;;-144.32;100.00;68061.97;10386521;28;20064;-82
2022/12/19 13:47:05;;;;;;;37.28;18.80;;;;;;;-144.32;100.00;68061.97;10387752;28;20053;-82
2022/12/19 13:52:10;;;;;;;36.67;18.70;;;;;;;-144.32;100.00;68061.97;10373477;28;20048;-83
2022/12/19 13:57:29;;;;;;;34.90;17.67;;;;;;;-144.32;100.00;68061.97;10375527;28;20130;-82
2022/12/19 14:02:36;;;;;;;35.83;19.00;;;;;;;-144.32;100.00;68061.97;10374683;28;20085;-83
2022/12/19 14:07:41;;;;;;;37.42;18.38;;;;;;;-144.32;100.00;68061.97;10347334;28;20041;-82
2022/12/19 14:18:27;;;;;;;34.75;17.88;;;;;;;-144.32;100.00;68061.97;10379741;28;20134;-82
2022/12/19 14:23:27;;;;;;;32.58;15.88;;;;;;;3.03;100.00;97084.94;10372077;28;20046;-85
2022/12/19 14:28:53;;;;;;;32.33;16.55;;;;;;;3.03;100.00;97084.94;10383445;28;20050;-80
2022/12/19 14:33:55;;;;;;;33.47;16.00;;;;;;;3.03;100.00;97084.94;10382929;28;20054;-80
2022/12/19 14:38:57;;;;;;;34.58;16.42;;;;;;;3.03;100.00;97084.94;10375162;28;20066;-82
2022/12/19 14:43:57;;;;;;;31.95;17.23;;;;;;;3.03;100.00;97084.94;10372826;28;20042;-77
2022/12/19 14:49:00;;;;;;;35.03;17.98;;;;;;;3.03;100.00;97084.94;10366925;28;20041;-79
2022/12/19 14:54:08;;;;;;;34.45;16.25;;;;;;;3.03;100.00;97084.94;10348899;28;20091;-78
2022/12/19 14:59:29;;;;;;;36.08;17.38;;;;;;;3.03;100.00;97084.94;10358928;28;20127;-83
2022/12/19 15:04:35;;;;;;;35.40;18.77;;;;;;;3.03;100.00;97084.94;10364358;28;20042;-81
2022/12/19 15:09:49;;;;;;;31.05;17.17;;;;;;;3.03;100.00;97084.94;10363429;28;20121;-79
2022/12/19 15:15:01;;;;;;;31.88;16.80;;;;;;;3.03;100.00;97084.94;10374940;28;20442;-82
2022/12/19 15:20:02;;;;;;;36.05;16.95;;;;;;;3.03;100.00;97084.94;10441928;23;20080;-81
2022/12/19 15:25:03;;;;;;;39.90;18.15;;;;;;;3.03;100.00;97084.94;10383119;28;20141;-86
2022/12/19 15:30:14;;;;;;;35.90;17.02;;;;;;;3.03;100.00;97084.94;10397172;28;20050;-81
2022/12/19 15:35:17;;;;;;;37.58;18.33;;;;;;;3.03;100.00;97084.94;10397664;28;20053;-84
2022/12/19 15:40:18;;;;;;;29.23;16.85;;;;;;;2.90;100.00;99238.09;10386080;28;20033;-84
2022/12/19 15:45:18;;;;;;;36.08;17.67;;;;;;;2.95;100.00;99237.38;10380553;28;20162;-81
2022/12/19 15:50:21;;;;;;;38.38;17.75;;;;;;;2.93;100.00;99229.69;10379031;28;20029;-83
2022/12/19 15:55:26;;;;;;;38.75;18.52;;;;;;;2.96;100.00;99233.66;10358960;28;20368;-81
2022/12/19 16:00:31;;;;;;;34.97;17.27;;;;;;;2.90;100.00;99219.53;10371027;28;20042;-86
2022/12/19 16:05:32;;;;;;;37.10;17.50;;;;;;;2.90;100.00;99202.84;10375499;28;20068;-82
2022/12/19 16:10:33;;;;;;;38.20;17.52;;;;;;;2.89;100.00;99204.69;10388938;28;20018;-81
2022/12/19 16:15:34;;;;;;;39.15;18.65;;;;;;;2.98;100.00;99226.25;10391180;28;20098;-80
2022/12/19 16:20:36;;;;;;;37.00;18.40;;;;;;;3.00;100.00;99206.38;10390810;28;20041;-80
2022/12/19 16:25:39;;;;;;;37.17;18.52;;;;;;;2.86;100.00;99202.56;10384391;28;20038;-83
2022/12/19 16:30:43;;;;;;;38.47;17.25;;;;;;;2.82;100.00;99188.19;10377712;28;20050;-83
2022/12/19 16:35:44;;;;;;;38.40;18.20;;;;;;;2.83;100.00;99181.81;10379876;28;20034;-81
2022/12/19 16:40:46;;;;;;;36.55;18.05;;;;;;;2.66;100.00;99191.75;10380757;28;20102;-81
2022/12/19 16:45:48;;;;;;;39.50;18.38;;;;;;;2.75;100.00;99185.75;10396851;28;20038;-79
2022/12/19 16:50:49;;;;;;;40.67;18.00;;;;;;;2.69;100.00;99181.44;10369928;28;20042;-78
2022/12/19 16:55:50;;;;;;;40.22;18.17;;;;;;;2.73;100.00;99174.56;10392641;28;20118;-79
2022/12/19 17:00:53;;;;;;;40.03;19.98;;;;;;;2.55;100.00;99169.59;10397828;28;20049;-78
2022/12/19 17:05:55;;;;;;;36.40;18.85;;;;;;;2.61;100.00;99165.16;10409977;28;20034;-80
2022/12/19 17:10:55;;;;;;;37.67;19.65;;;;;;;2.62;100.00;99162.25;10374704;28;20053;-81
2022/12/19 17:15:57;;;;;;;39.72;19.08;;;;;;;2.56;100.00;99163.25;10377294;28;20184;-80
2022/12/19 17:20:57;;;;;;;37.00;18.27;;;;;;;2.59;100.00;99159.31;10367732;28;20042;-79
2022/12/19 17:26:00;;;;;;;35.15;18.73;;;;;;;2.49;100.00;99165.31;10371003;28;20473;-80
2022/12/19 17:31:09;;;;;;;40.45;20.05;;;;;;;2.50;100.00;99165.06;10374215;28;20054;-82
2022/12/19 17:36:13;;;;;;;40.03;18.90;;;;;;;2.41;100.00;99171.03;10379330;28;20066;-79
2022/12/19 17:41:15;;;;;;;;;;;;;;;2.50;100.00;99169.56;10362375;28;20042;-77
2022/12/19 17:46:18;;;;;;;40.90;19.45;;;;;;;2.28;100.00;99172.19;10369748;28;19933;-82
2022/12/19 17:51:21;;;;;;;41.80;19.73;;;;;;;2.35;100.00;99172.81;10362175;28;20050;-82
2022/12/19 17:56:22;;;;;;;42.08;19.95;;;;;;;2.48;100.00;99176.97;10351671;28;20297;-81
2022/12/19 18:01:23;;;;;;;42.65;19.45;;;;;;;2.45;100.00;99175.59;10373836;28;20405;-80
2022/12/19 18:06:24;;;;;;;40.75;21.13;;;;;;;2.41;100.00;99169.19;10392529;28;20056;-82
2022/12/19 18:11:25;;;;;;;43.42;22.92;;;;;;;2.61;100.00;99170.47;10401367;28;20056;-82
2022/12/19 18:16:27;;;;;;;39.72;19.40;;;;;;;2.51;100.00;99187.84;10394712;28;20069;-82
2022/12/19 18:21:27;;;;;;;41.13;19.67;;;;;;;2.51;100.00;99195.00;10368836;28;20050;-81
2022/12/19 18:26:28;;;;;;;39.05;19.48;;;;;;;2.47;100.00;99196.53;10368241;28;20042;-82
2022/12/19 18:31:29;;;;;;;40.35;21.63;;;;;;;2.35;100.00;99191.38;10391783;28;20019;-79
2022/12/19 18:36:41;;;;;;;42.15;20.60;;;;;;;2.40;100.00;99178.19;10411585;28;20060;-78
2022/12/19 18:41:41;;;;;;;41.28;19.83;;;;;;;2.43;100.00;99184.84;10405458;28;20038;-80
2022/12/19 18:46:44;;;;;;;45.05;22.00;;;;;;;2.38;100.00;99192.72;10407351;28;20089;-79
2022/12/19 18:51:44;;;;;;;43.30;21.50;;;;;;;2.32;100.00;99194.50;10407018;28;20041;-78
2022/12/19 18:56:45;;;;;;;38.78;20.58;;;;;;;2.30;100.00;99206.41;10413427;28;20028;-78
2022/12/19 19:01:46;;;;;;;41.15;19.90;;;;;;;2.22;100.00;99216.38;10414453;28;20060;-77
2022/12/19 19:06:48;;;;;;;43.80;20.80;;;;;;;2.28;100.00;99214.56;10391529;28;20027;-78
2022/12/19 19:11:49;;;;;;;39.08;20.73;;;;;;;1.95;100.00;99212.81;10387339;28;20056;-79
2022/12/19 19:16:51;;;;;;;40.33;21.95;;;;;;;1.92;100.00;99208.00;10393779;28;20026;-79
2022/12/19 19:21:51;;;;;;;42.92;22.95;;;;;;;1.85;100.00;99189.66;10416668;28;20068;-77
2022/12/19 19:26:52;;;;;;;47.60;22.23;;;;;;;1.96;100.00;99180.81;10402334;28;20052;-79
2022/12/19 19:31:52;;;;;;;40.33;21.27;;;;;;;1.89;100.00;99171.44;10395771;28;20054;-80
2022/12/19 19:36:57;;;;;;;43.50;22.48;;;;;;;1.82;100.00;99168.97;10380112;28;20042;-79
2022/12/19 19:41:58;;;;;;;46.97;24.02;;;;;;;1.97;100.00;99178.97;10378730;28;20485;-82
2022/12/19 19:46:59;;;;;;;47.42;22.77;;;;;;;2.03;100.00;99185.13;10392980;28;20048;-80
2022/12/19 19:51:59;;;;;;;46.50;22.13;;;;;;;1.98;100.00;99184.00;10373861;28;20581;-80
2022/12/19 19:57:00;;;;;;;44.85;22.58;;;;;;;2.00;100.00;99175.81;10361976;28;20070;-79
2022/12/19 20:02:01;;;;;;;42.97;21.42;;;;;;;2.08;100.00;99172.75;10364863;28;20105;-79
2022/12/19 20:07:02;;;;;;;45.42;21.77;;;;;;;2.04;100.00;99178.78;10367727;28;20043;-79
2022/12/19 20:12:02;;;;;;;38.08;20.90;;;;;;;1.97;100.00;99173.66;10352504;28;20046;-79
2022/12/19 20:17:03;;;;;;;44.40;22.35;;;;;;;1.91;100.00;99172.78;10361695;28;20046;-80
2022/12/19 20:22:03;;;;;;;47.63;23.00;;;;;;;1.81;100.00;99187.72;10353257;28;20091;-80
2022/12/19 20:27:04;;;;;;;41.13;21.50;;;;;;;1.85;100.00;99180.94;10362666;28;20450;-80
2022/12/19 20:32:05;;;;;;;44.42;21.33;;;;;;;1.81;100.00;99172.66;10357062;28;20586;-79
2022/12/19 20:37:05;;;;;;;41.47;21.23;;;;;;;1.69;100.00;99174.59;10362541;28;20099;-80
2022/12/19 20:42:08;;;;;;;35.47;19.95;;;;;;;1.66;100.00;99175.09;10374737;28;20062;-82
2022/12/19 20:47:10;;;;;;;41.15;21.35;;;;;;;1.48;100.00;99164.78;10378927;28;20383;-79
2022/12/19 20:52:10;;;;;;;41.65;20.20;;;;;;;1.60;100.00;99171.56;10382248;28;20054;-82
2022/12/19 20:57:11;;;;;;;45.35;21.83;;;;;;;1.65;100.00;99178.78;10360555;28;20077;-78
2022/12/19 21:02:11;;;;;;;42.10;21.40;;;;;;;1.65;100.00;99169.00;10361284;28;20045;-79
2022/12/19 21:07:12;;;;;;;38.80;21.23;;;;;;;1.71;100.00;99169.88;10365456;28;20037;-80
2022/12/19 21:12:13;;;;;;;43.30;20.42;;;;;;;1.58;100.00;99162.28;10370210;28;20044;-79
2022/12/19 21:17:14;;;;;;;40.35;21.13;;;;;;;1.40;100.00;99169.41;10395940;28;20046;-78
2022/12/19 21:22:14;;;;;;;43.22;21.40;;;;;;;1.23;100.00;99159.88;10395624;28;20061;-76
2022/12/19 21:27:15;;;;;;;45.78;21.17;;;;;;;1.11;100.00;99181.91;10415592;28;20098;-76
2022/12/19 21:32:16;;;;;;;40.25;20.52;;;;;;;1.17;100.00;99184.63;10413325;28;20078;-77
2022/12/19 21:37:17;;;;;;;37.80;19.40;;;;;;;1.37;100.00;99179.66;10402671;28;20074;-78
2022/12/19 21:42:18;;;;;;;38.70;19.85;;;;;;;1.14;100.00;99168.22;10390913;28;20042;-79
2022/12/19 21:47:18;;;;;;;35.47;20.05;;;;;;;1.06;100.00;99173.09;10359652;28;20060;-79
2022/12/19 21:52:19;;;;;;;37.22;19.40;;;;;;;1.06;100.00;99181.00;10364308;28;20045;-78
2022/12/19 21:57:19;;;;;;;41.95;22.05;;;;;;;0.97;100.00;99169.22;10376036;28;20123;-78
2022/12/19 22:02:20;;;;;;;37.10;19.48;;;;;;;1.07;100.00;99161.47;10366702;28;20674;-78
2022/12/19 22:07:20;;;;;;;38.83;20.20;;;;;;;1.17;100.00;99163.47;10368382;28;20074;-81
2022/12/19 22:12:21;;;;;;;40.17;20.83;;;;;;;1.00;100.00;99143.09;10364525;28;20047;-79
2022/12/19 22:17:23;;;;;;;40.05;20.33;;;;;;;0.91;100.00;99143.75;10354489;28;20055;-79
2022/12/19 22:22:24;;;;;;;39.92;20.45;;;;;;;0.92;100.00;99142.72;10371018;28;20106;-79
2022/12/19 22:27:24;;;;;;;40.75;19.70;;;;;;;0.77;100.00;99149.34;10391966;28;20025;-77
2022/12/19 22:32:25;;;;;;;39.58;21.08;;;;;;;0.76;100.00;99146.94;10407415;28;20185;-77
2022/12/19 22:37:25;;;;;;;44.08;21.40;;;;;;;0.88;100.00;99155.59;10378415;28;20073;-79
2022/12/19 22:42:26;;;;;;;40.90;22.77;;;;;;;0.97;100.00;99158.66;10352342;28;20042;-77
2022/12/19 22:47:27;;;;;;;44.35;21.92;;;;;;;0.93;100.00;99158.34;10355537;28;20082;-81
2022/12/19 22:52:28;;;;;;;41.53;20.67;;;;;;;0.89;100.00;99143.97;10379400;28;20513;-78